createdAt,value
2022-11-13T00:04:20.374Z,7.33
2022-11-13T00:09:14.083Z,6.91
2022-11-13T00:14:07.628Z,7.12
2022-11-13T00:19:02.493Z,7.61
2022-11-13T00:23:57.821Z,7.32
2022-11-13T00:28:55.166Z,7.08
2022-11-13T00:34:14.204Z,6.98
2022-11-13T00:39:03.071Z,6.96
2022-11-13T00:43:56.349Z,7.02
2022-11-13T00:48:50.119Z,7.04
2022-11-13T00:53:43.775Z,7.13
2022-11-13T00:58:38.437Z,6.70
2022-11-13T01:03:31.721Z,6.68
2022-11-13T01:08:25.172Z,6.74
2022-11-13T01:13:18.652Z,6.71
2022-11-13T01:18:14.299Z,6.57
2022-11-13T01:23:07.599Z,6.56
2022-11-13T01:28:00.896Z,6.67
2022-11-13T01:32:54.210Z,6.67
2022-11-13T01:37:49.212Z,6.63
2022-11-13T01:42:42.620Z,6.51
2022-11-13T01:47:36.988Z,6.54
2022-11-13T01:52:34.581Z,6.47
2022-11-13T01:57:29.870Z,6.70
2022-11-13T02:02:23.254Z,6.69
2022-11-13T02:07:20.249Z,6.70
2022-11-13T02:12:16.670Z,6.82
2022-11-13T02:17:18.389Z,6.71
2022-11-13T02:22:23.322Z,6.88
2022-11-13T02:27:24.863Z,7.05
2022-11-13T02:32:18.146Z,6.79
2022-11-13T02:37:11.645Z,6.69
2022-11-13T02:42:05.360Z,6.65
2022-11-13T02:47:00.005Z,6.81
2022-11-13T02:51:53.236Z,6.88
2022-11-13T02:56:46.617Z,6.66
2022-11-13T03:01:40.027Z,6.83
2022-11-13T03:06:34.674Z,7.18
2022-11-13T03:11:27.964Z,6.85
2022-11-13T03:16:21.312Z,6.83
2022-11-13T03:21:17.108Z,6.79
2022-11-13T03:26:18.492Z,6.88
2022-11-13T03:31:12.044Z,6.82
2022-11-13T03:36:06.506Z,6.87
2022-11-13T03:40:59.820Z,6.62
2022-11-13T03:45:54.551Z,6.51
2022-11-13T03:50:50.856Z,6.40
2022-11-13T03:55:44.698Z,6.55
2022-11-13T04:00:39.550Z,6.71
2022-11-13T04:05:34.571Z,6.60
2022-11-13T04:10:28.433Z,6.56
2022-11-13T04:15:22.006Z,6.62
2022-11-13T04:20:15.336Z,6.68
2022-11-13T04:25:11.062Z,6.77
2022-11-13T04:30:06.364Z,7.00
2022-11-13T04:34:59.634Z,6.77
2022-11-13T04:39:52.961Z,6.65
2022-11-13T04:44:47.588Z,6.64
2022-11-13T04:49:40.840Z,6.59
2022-11-13T04:54:34.176Z,6.42
2022-11-13T04:59:27.396Z,6.56
2022-11-13T05:04:22.512Z,6.72
2022-11-13T05:09:16.269Z,6.66
2022-11-13T05:14:11.947Z,6.81
2022-11-13T05:19:07.005Z,6.83
2022-11-13T05:24:01.734Z,6.97
2022-11-13T05:28:57.787Z,7.05
2022-11-13T05:33:51.204Z,6.72
2022-11-13T05:38:45.313Z,6.83
2022-11-13T05:43:41.501Z,6.90
2022-11-13T05:48:35.954Z,6.67
2022-11-13T05:53:29.766Z,6.73
2022-11-13T05:58:23.070Z,6.72
2022-11-13T06:03:17.680Z,6.76
2022-11-13T06:08:11.296Z,6.74
2022-11-13T06:13:04.481Z,7.03
2022-11-13T06:17:57.773Z,6.87
2022-11-13T06:22:52.391Z,6.96
2022-11-13T06:27:46.366Z,6.93
2022-11-13T06:32:39.633Z,6.77
2022-11-13T06:37:34.838Z,6.87
2022-11-13T06:42:29.962Z,7.02
2022-11-13T06:47:23.224Z,7.00
2022-11-13T06:52:16.479Z,6.96
2022-11-13T06:57:09.751Z,7.10
2022-11-13T07:02:04.767Z,7.13
2022-11-13T07:06:58.204Z,7.28
2022-11-13T07:11:51.513Z,6.99
2022-11-13T07:17:08.039Z,7.00
2022-11-13T07:21:59.406Z,7.15
2022-11-13T07:26:52.723Z,7.14
2022-11-13T07:31:46.033Z,7.05
2022-11-13T07:36:39.287Z,7.01
2022-11-13T07:41:33.952Z,7.21
2022-11-13T07:46:27.208Z,7.45
2022-11-13T07:51:20.455Z,7.38
2022-11-13T07:56:16.574Z,7.25
2022-11-13T08:01:13.700Z,7.03
2022-11-13T08:06:11.110Z,6.92
2022-11-13T08:11:10.065Z,6.82
2022-11-13T08:16:05.259Z,6.98
2022-11-13T08:21:06.286Z,7.21
2022-11-13T08:26:07.081Z,7.03
2022-11-13T08:31:00.649Z,7.14
2022-11-13T08:35:55.555Z,7.09
2022-11-13T08:40:50.949Z,7.10
2022-11-13T08:45:47.144Z,6.94
2022-11-13T08:50:41.080Z,6.80
2022-11-13T08:55:35.836Z,6.88
2022-11-13T09:00:32.868Z,6.80
2022-11-13T09:05:27.243Z,6.62
2022-11-13T09:10:20.865Z,6.72
2022-11-13T09:15:14.503Z,6.52
2022-11-13T09:20:13.853Z,6.47
2022-11-13T09:25:08.888Z,6.74
2022-11-13T09:30:02.470Z,7.02
2022-11-13T09:34:55.776Z,7.14
2022-11-13T09:39:50.458Z,7.17
2022-11-13T09:44:50.714Z,6.94
2022-11-13T09:49:49.111Z,6.83
2022-11-13T09:54:42.840Z,6.80
2022-11-13T09:59:48.150Z,6.70
2022-11-13T10:04:58.945Z,6.63
2022-11-13T10:10:06.594Z,6.62
2022-11-13T10:15:06.194Z,6.97
2022-11-13T10:20:02.747Z,7.29
2022-11-13T10:25:06.292Z,7.24
2022-11-13T10:30:00.997Z,7.43
2022-11-13T10:35:02.211Z,7.38
2022-11-13T10:39:55.554Z,7.34
2022-11-13T10:44:57.283Z,7.38
2022-11-13T10:49:51.934Z,7.20
2022-11-13T10:54:45.293Z,7.28
2022-11-13T10:59:44.430Z,7.31
2022-11-13T11:04:37.748Z,7.22
2022-11-13T11:09:34.165Z,7.22
2022-11-13T11:14:34.204Z,7.09
2022-11-13T11:19:36.154Z,7.06
2022-11-13T11:24:37.940Z,6.88
2022-11-13T11:29:39.642Z,6.82
2022-11-13T11:34:40.232Z,6.94
2022-11-13T11:39:42.757Z,6.98
2022-11-13T11:44:51.340Z,6.90
2022-11-13T11:49:45.982Z,7.13
2022-11-13T11:54:45.075Z,6.91
2022-11-13T12:00:03.946Z,7.18
2022-11-13T12:05:20.050Z,7.05
2022-11-13T12:10:31.469Z,7.20
2022-11-13T12:15:37.141Z,7.30
2022-11-13T12:20:42.880Z,7.12
2022-11-13T12:25:46.712Z,7.06
2022-11-13T12:30:55.780Z,7.13
2022-11-13T12:35:53.891Z,7.24
2022-11-13T12:41:06.650Z,7.39
2022-11-13T12:46:08.973Z,7.25
2022-11-13T12:51:05.957Z,7.25
2022-11-13T12:56:03.712Z,7.40
2022-11-13T13:01:04.140Z,7.16
2022-11-13T13:06:23.335Z,7.17
2022-11-13T13:11:32.700Z,7.27
2022-11-13T13:16:29.411Z,7.15
2022-11-13T13:21:22.826Z,7.18
2022-11-13T13:26:21.563Z,7.11
2022-11-13T13:31:37.170Z,7.10
2022-11-13T13:37:04.970Z,7.07
2022-11-13T13:42:19.848Z,7.05
2022-11-13T13:47:24.563Z,6.98
2022-11-13T13:52:18.493Z,6.99
2022-11-13T13:57:17.469Z,7.04
2022-11-13T14:02:18.736Z,7.45
2022-11-13T14:07:23.987Z,7.09
2022-11-13T14:12:23.408Z,7.21
2022-11-13T14:17:25.291Z,7.13
2022-11-13T14:22:18.838Z,7.32
2022-11-13T14:27:19.860Z,7.26
2022-11-13T14:32:22.266Z,7.23
2022-11-13T14:37:26.632Z,7.22
2022-11-13T14:42:24.281Z,7.15
2022-11-13T14:47:29.378Z,7.17
2022-11-13T14:52:25.544Z,7.27
2022-11-13T14:57:18.846Z,7.03
2022-11-13T15:02:13.820Z,6.92
2022-11-13T15:07:29.298Z,6.99
2022-11-13T15:12:22.698Z,6.90
2022-11-13T15:17:20.590Z,6.72
2022-11-13T15:22:30.291Z,6.94
2022-11-13T15:27:25.319Z,6.96
2022-11-13T15:32:18.639Z,7.04
2022-11-13T15:37:14.003Z,7.09
2022-11-13T15:42:14.886Z,7.11
2022-11-13T15:47:28.877Z,7.07
2022-11-13T15:52:23.815Z,7.10
2022-11-13T15:57:22.343Z,6.90
2022-11-13T16:02:17.575Z,6.95
2022-11-13T16:07:17.179Z,6.87
2022-11-13T16:12:12.062Z,6.94
2022-11-13T16:17:05.521Z,6.94
2022-11-13T16:22:00.272Z,6.92
2022-11-13T16:27:00.953Z,7.02
2022-11-13T16:31:54.267Z,7.06
2022-11-13T16:36:48.169Z,7.21
2022-11-13T16:41:42.907Z,7.32
2022-11-13T16:46:41.705Z,7.26
2022-11-13T16:51:35.027Z,7.32
2022-11-13T16:56:30.694Z,7.27
2022-11-13T17:01:26.599Z,7.23
2022-11-13T17:06:26.581Z,7.16
2022-11-13T17:11:20.727Z,7.02
2022-11-13T17:16:14.698Z,7.11
2022-11-13T17:21:09.387Z,6.85
2022-11-13T17:26:02.790Z,7.01
2022-11-13T17:30:59.106Z,7.13
2022-11-13T17:35:56.902Z,7.23
2022-11-13T17:40:53.876Z,6.98
2022-11-13T17:45:51.541Z,6.69
2022-11-13T17:50:44.936Z,6.83
2022-11-13T17:55:38.585Z,6.94
2022-11-13T18:00:33.237Z,7.05
2022-11-13T18:05:26.655Z,7.03
2022-11-13T18:10:20.327Z,7.11
2022-11-13T18:15:13.588Z,7.20
2022-11-13T18:20:09.902Z,7.17
2022-11-13T18:25:03.429Z,7.07
2022-11-13T18:29:57.013Z,6.99
2022-11-13T18:34:50.291Z,6.91
2022-11-13T18:39:45.017Z,6.93
2022-11-13T18:44:39.439Z,6.97
2022-11-13T18:49:32.847Z,7.08
2022-11-13T18:54:26.804Z,6.95
2022-11-13T18:59:21.499Z,6.99
2022-11-13T19:04:22.745Z,7.00
2022-11-13T19:09:18.944Z,7.00
2022-11-13T19:14:16.425Z,7.04
2022-11-13T19:19:19.312Z,6.83
2022-11-13T19:24:14.666Z,6.92
2022-11-13T19:29:08.623Z,7.06
2022-11-13T19:34:06.188Z,6.95
2022-11-13T19:39:01.374Z,6.89
2022-11-13T19:43:55.018Z,6.97
2022-11-13T19:48:50.610Z,6.95
2022-11-13T19:53:46.256Z,7.02
2022-11-13T19:58:43.053Z,6.93
2022-11-13T20:03:36.344Z,7.01
2022-11-13T20:08:30.059Z,7.11
2022-11-13T20:13:23.768Z,7.09
2022-11-13T20:18:18.697Z,7.17
2022-11-13T20:23:12.177Z,7.20
2022-11-13T20:28:05.951Z,7.23
2022-11-13T20:32:59.609Z,7.30
2022-11-13T20:37:54.228Z,7.18
2022-11-13T20:42:47.532Z,7.11
2022-11-13T20:47:40.868Z,7.20
2022-11-13T20:52:34.208Z,7.02
2022-11-13T20:57:28.822Z,6.97
2022-11-13T21:02:22.127Z,6.92
2022-11-13T21:07:15.403Z,6.85
2022-11-13T21:12:09.160Z,7.01
2022-11-13T21:17:04.421Z,7.03
2022-11-13T21:21:57.781Z,7.11
2022-11-13T21:26:51.056Z,7.08
2022-11-13T21:31:44.686Z,7.13
2022-11-13T21:36:39.359Z,7.23
2022-11-13T21:41:32.649Z,7.19
2022-11-13T21:46:29.091Z,7.19
2022-11-13T21:51:22.444Z,7.02
2022-11-13T21:56:17.317Z,7.18
2022-11-13T22:01:12.530Z,7.33
2022-11-13T22:06:18.162Z,7.33
2022-11-13T22:11:12.641Z,7.31
2022-11-13T22:16:09.899Z,7.43
2022-11-13T22:21:04.853Z,7.42
2022-11-13T22:26:03.253Z,7.44
2022-11-13T22:30:56.809Z,7.36
2022-11-13T22:35:51.454Z,7.31
2022-11-13T22:40:44.860Z,7.18
2022-11-13T22:45:38.157Z,7.12
2022-11-13T22:50:31.393Z,7.14
2022-11-13T22:55:26.044Z,7.16
2022-11-13T23:00:19.848Z,7.10
2022-11-13T23:05:13.213Z,7.17
2022-11-13T23:10:08.110Z,7.24
2022-11-13T23:15:02.750Z,7.16
2022-11-13T23:19:56.028Z,7.15
2022-11-13T23:24:49.285Z,6.96
2022-11-13T23:29:48.789Z,7.03
2022-11-13T23:35:00.356Z,7.02
2022-11-13T23:39:53.796Z,7.14
2022-11-13T23:44:47.033Z,7.23
2022-11-13T23:49:40.236Z,7.18
2022-11-13T23:54:34.891Z,7.21
2022-11-13T23:59:28.158Z,7.24
